createdAt,value
2022-12-11T00:01:12.956Z,100537.69
2022-12-11T00:03:41.571Z,100534.75
2022-12-11T00:06:11.572Z,100530.63
2022-12-11T00:08:39.723Z,100524.16
2022-12-11T00:11:11.281Z,100525.63
2022-12-11T00:13:39.461Z,100521.22
2022-12-11T00:16:09.955Z,100523.78
2022-12-11T00:18:38.491Z,100522.25
2022-12-11T00:21:12.888Z,100528.91
2022-12-11T00:23:41.534Z,100528.47
2022-12-11T00:26:14.206Z,100524.69
2022-12-11T00:28:42.860Z,100524.34
2022-12-11T00:31:14.811Z,100526.03
2022-12-11T00:33:43.447Z,100522.63
2022-12-11T00:36:15.559Z,100528.25
2022-12-11T00:38:44.067Z,100524.78
2022-12-11T00:41:14.111Z,100524.19
2022-12-11T00:43:42.935Z,100531.75
2022-12-11T00:46:11.141Z,100527.41
2022-12-11T00:48:39.631Z,100520.34
2022-12-11T00:51:08.107Z,100523.91
2022-12-11T00:53:37.123Z,100523.16
2022-12-11T00:56:11.612Z,100522.41
2022-12-11T00:58:40.936Z,100530.19
2022-12-11T01:01:10.309Z,100520.97
2022-12-11T01:03:39.088Z,100517.72
2022-12-11T01:06:07.872Z,100517.84
2022-12-11T01:08:38.868Z,100519.97
2022-12-11T01:11:08.421Z,100525.19
2022-12-11T01:13:36.985Z,100516.94
2022-12-11T01:16:10.152Z,100520.97
2022-12-11T01:18:38.560Z,100531.66
2022-12-11T01:21:08.002Z,100529.13
2022-12-11T01:23:36.041Z,100528.19
2022-12-11T01:26:09.386Z,100537.75
2022-12-11T01:28:37.902Z,100534.34
2022-12-11T01:31:10.479Z,100538.81
2022-12-11T01:33:38.946Z,100534.00
2022-12-11T01:36:09.753Z,100531.00
2022-12-11T01:38:38.306Z,100539.34
2022-12-11T01:41:07.121Z,100535.28
2022-12-11T01:43:35.162Z,100528.31
2022-12-11T01:46:03.550Z,100522.63
2022-12-11T01:48:37.928Z,100524.09
2022-12-11T01:51:08.704Z,100528.09
2022-12-11T01:53:40.728Z,100528.59
2022-12-11T01:56:09.438Z,100530.91
2022-12-11T01:58:43.141Z,100533.19
2022-12-11T02:01:15.730Z,100523.78
2022-12-11T02:03:45.263Z,100540.06
2022-12-11T02:06:32.113Z,100533.41
2022-12-11T02:09:00.690Z,100527.50
2022-12-11T02:11:36.556Z,100530.50
2022-12-11T02:14:10.464Z,100523.56
2022-12-11T02:16:46.905Z,100537.75
2022-12-11T02:19:29.204Z,100541.44
2022-12-11T02:21:58.013Z,100540.31
2022-12-11T02:24:48.700Z,100535.16
2022-12-11T02:27:28.493Z,100536.28
2022-12-11T02:30:03.550Z,100538.44
2022-12-11T02:32:39.382Z,100534.81
2022-12-11T02:35:14.319Z,100532.94
2022-12-11T02:37:46.026Z,100538.00
2022-12-11T02:40:18.225Z,100533.53
2022-12-11T02:42:49.119Z,100525.06
2022-12-11T02:45:20.274Z,100520.25
2022-12-11T02:47:50.446Z,100513.53
2022-12-11T02:50:23.380Z,100522.25
2022-12-11T02:52:55.697Z,100524.19
2022-12-11T02:55:27.348Z,100516.16
2022-12-11T02:58:03.623Z,100510.50
2022-12-11T03:00:33.336Z,100521.59
2022-12-11T03:03:01.447Z,100524.28
2022-12-11T03:05:30.618Z,100519.19
2022-12-11T03:07:58.712Z,100521.72
2022-12-11T03:10:26.859Z,100519.28
2022-12-11T03:12:59.397Z,100515.16
2022-12-11T03:15:34.992Z,100519.28
2022-12-11T03:18:10.026Z,100527.34
2022-12-11T03:20:42.782Z,100519.34
2022-12-11T03:23:22.194Z,100522.59
2022-12-11T03:25:55.821Z,100522.88
2022-12-11T03:28:30.656Z,100521.91
2022-12-11T03:31:06.743Z,100520.69
2022-12-11T03:33:38.596Z,100520.34
2022-12-11T03:36:10.846Z,100530.22
2022-12-11T03:38:46.816Z,100523.16
2022-12-11T03:41:17.729Z,100526.03
2022-12-11T03:43:47.037Z,100520.28
2022-12-11T03:46:18.157Z,100523.53
2022-12-11T03:48:48.076Z,100522.31
2022-12-11T03:51:18.202Z,100515.19
2022-12-11T03:53:47.072Z,100510.50
2022-12-11T03:56:16.922Z,100516.63
2022-12-11T03:58:44.868Z,100509.59
2022-12-11T04:01:13.586Z,100508.78
2022-12-11T04:03:42.903Z,100507.97
2022-12-11T04:06:10.867Z,100507.28
2022-12-11T04:08:38.809Z,100505.88
2022-12-11T04:11:29.614Z,100508.22
2022-12-11T04:14:11.446Z,100503.34
2022-12-11T04:16:39.600Z,100505.09
2022-12-11T04:19:27.956Z,100501.69
2022-12-11T04:22:13.088Z,100507.34
2022-12-11T04:24:41.094Z,100497.38
2022-12-11T04:27:09.332Z,100504.38
2022-12-11T04:29:37.217Z,100507.97
2022-12-11T04:32:05.375Z,100502.97
2022-12-11T04:34:34.696Z,100497.59
2022-12-11T04:37:02.708Z,100501.94
2022-12-11T04:39:30.660Z,100501.47
2022-12-11T04:41:58.532Z,100499.84
2022-12-11T04:44:26.537Z,100495.47
2022-12-11T04:46:54.506Z,100496.03
2022-12-11T04:49:22.495Z,100497.25
2022-12-11T04:51:51.950Z,100488.38
2022-12-11T04:54:19.869Z,100497.25
2022-12-11T04:56:47.952Z,100499.41
2022-12-11T04:59:15.878Z,100498.25
2022-12-11T05:01:43.807Z,100502.34
2022-12-11T05:04:12.056Z,100497.59
2022-12-11T05:06:40.106Z,100502.50
2022-12-11T05:09:12.102Z,100500.88
2022-12-11T05:11:40.109Z,100508.03
2022-12-11T05:14:08.120Z,100503.97
2022-12-11T05:16:36.132Z,100502.59
2022-12-11T05:19:04.034Z,100498.22
2022-12-11T05:21:35.162Z,100486.50
2022-12-11T05:24:03.383Z,100488.22
2022-12-11T05:26:32.772Z,100491.31
2022-12-11T05:29:00.806Z,100494.44
2022-12-11T05:31:29.250Z,100488.75
2022-12-11T05:33:57.225Z,100495.78
2022-12-11T05:36:27.503Z,100490.28
2022-12-11T05:38:56.162Z,100491.13
2022-12-11T05:41:25.864Z,100492.88
2022-12-11T05:43:55.811Z,100490.97
2022-12-11T05:46:25.973Z,100491.53
2022-12-11T05:48:56.836Z,100486.28
2022-12-11T05:51:25.485Z,100489.13
2022-12-11T05:53:54.200Z,100481.56
2022-12-11T05:56:24.363Z,100478.44
2022-12-11T05:58:52.343Z,100484.38
2022-12-11T06:01:24.306Z,100477.34
2022-12-11T06:03:52.270Z,100477.00
2022-12-11T06:06:20.375Z,100476.41
2022-12-11T06:08:51.106Z,100474.72
2022-12-11T06:11:23.716Z,100476.75
2022-12-11T06:13:53.199Z,100477.72
2022-12-11T06:16:23.115Z,100477.03
2022-12-11T06:18:51.296Z,100481.91
2022-12-11T06:21:21.169Z,100484.03
2022-12-11T06:23:51.697Z,100472.75
2022-12-11T06:26:20.874Z,100472.44
2022-12-11T06:28:49.315Z,100475.78
2022-12-11T06:31:17.765Z,100472.34
2022-12-11T06:33:47.669Z,100474.72
2022-12-11T06:36:18.513Z,100471.03
2022-12-11T06:38:46.407Z,100471.94
2022-12-11T06:41:15.045Z,100477.53
2022-12-11T06:43:43.940Z,100473.00
2022-12-11T06:46:13.983Z,100470.63
2022-12-11T06:48:43.194Z,100481.34
2022-12-11T06:51:14.521Z,100487.22
2022-12-11T06:53:42.772Z,100491.59
2022-12-11T06:56:13.527Z,100493.00
2022-12-11T06:58:43.276Z,100487.13
2022-12-11T07:01:16.094Z,100485.94
2022-12-11T07:03:44.131Z,100481.44
2022-12-11T07:06:14.923Z,100486.63
2022-12-11T07:08:43.471Z,100485.63
2022-12-11T07:11:14.179Z,100484.84
2022-12-11T07:13:43.052Z,100481.78
2022-12-11T07:16:12.960Z,100486.56
2022-12-11T07:18:42.797Z,100501.78
2022-12-11T07:21:13.977Z,100501.94
2022-12-11T07:23:42.516Z,100494.28
2022-12-11T07:26:14.893Z,100488.63
2022-12-11T07:28:43.506Z,100493.81
2022-12-11T07:31:13.897Z,100491.44
2022-12-11T07:33:42.750Z,100486.97
2022-12-11T07:36:13.902Z,100498.50
2022-12-11T07:38:42.593Z,100502.50
2022-12-11T07:41:13.416Z,100503.03
2022-12-11T07:43:42.361Z,100508.13
2022-12-11T07:46:12.942Z,100497.94
2022-12-11T07:48:42.970Z,100503.16
2022-12-11T07:51:15.055Z,100511.19
2022-12-11T07:53:45.832Z,100519.09
2022-12-11T07:56:14.204Z,100517.97
2022-12-11T07:58:42.192Z,100508.88
2022-12-11T08:01:13.316Z,100512.97
2022-12-11T08:03:42.085Z,100513.16
2022-12-11T08:06:11.039Z,100500.97
2022-12-11T08:08:41.547Z,100512.00
2022-12-11T08:11:12.109Z,100508.72
2022-12-11T08:13:41.145Z,100507.69
2022-12-11T08:16:13.096Z,100512.28
2022-12-11T08:18:42.737Z,100524.94
2022-12-11T08:21:13.128Z,100518.50
2022-12-11T08:23:42.428Z,100520.78
2022-12-11T08:26:13.610Z,100515.63
2022-12-11T08:28:41.664Z,100523.78
2022-12-11T08:31:11.489Z,100516.91
2022-12-11T08:33:41.436Z,100517.19
2022-12-11T08:36:11.697Z,100516.06
2022-12-11T08:38:40.266Z,100513.13
2022-12-11T08:41:13.919Z,100508.59
2022-12-11T08:43:42.333Z,100509.91
2022-12-11T08:46:11.223Z,100513.06
2022-12-11T08:48:40.806Z,100512.72
2022-12-11T08:51:12.037Z,100519.88
2022-12-11T08:53:40.424Z,100510.16
2022-12-11T08:56:10.827Z,100516.31
2022-12-11T08:58:40.320Z,100518.44
2022-12-11T09:01:10.603Z,100507.56
2022-12-11T09:03:39.371Z,100513.19
2022-12-11T09:06:08.624Z,100509.47
2022-12-11T09:08:37.213Z,100513.34
2022-12-11T09:11:06.664Z,100519.31
2022-12-11T09:13:35.008Z,100520.66
2022-12-11T09:16:07.693Z,100527.25
2022-12-11T09:18:35.742Z,100519.63
2022-12-11T09:21:05.878Z,100526.06
2022-12-11T09:23:34.190Z,100518.75
2022-12-11T09:26:05.293Z,100514.44
2022-12-11T09:28:33.685Z,100518.44
2022-12-11T09:31:01.895Z,100511.72
2022-12-11T09:33:31.305Z,100512.72
2022-12-11T09:35:59.626Z,100507.97
2022-12-11T09:38:28.197Z,100507.81
2022-12-11T09:41:03.564Z,100507.00
2022-12-11T09:43:39.138Z,100509.28
2022-12-11T09:46:12.183Z,100504.41
2022-12-11T09:48:44.064Z,100495.38
2022-12-11T09:51:19.792Z,100499.94
2022-12-11T09:53:50.144Z,100490.16
2022-12-11T09:56:26.977Z,100493.34
2022-12-11T09:59:06.373Z,100483.78
2022-12-11T10:01:42.854Z,100482.22
2022-12-11T10:04:37.348Z,100484.25
2022-12-11T10:07:15.388Z,100473.88
2022-12-11T10:09:52.602Z,100472.13
2022-12-11T10:12:34.655Z,100476.66
2022-12-11T10:15:20.678Z,100480.69
2022-12-11T10:17:49.324Z,100473.97
2022-12-11T10:20:24.732Z,100471.03
2022-12-11T10:22:57.854Z,100468.19
2022-12-11T10:25:29.283Z,100463.63
2022-12-11T10:27:57.930Z,100467.50
2022-12-11T10:30:30.462Z,100462.44
2022-12-11T10:33:12.792Z,100459.19
2022-12-11T10:35:48.865Z,100448.78
2022-12-11T10:38:21.200Z,100454.91
2022-12-11T10:40:52.420Z,100448.78
2022-12-11T10:43:20.863Z,100446.88
2022-12-11T10:45:53.579Z,100441.06
2022-12-11T10:48:23.097Z,100448.47
2022-12-11T10:51:01.773Z,100445.50
2022-12-11T10:53:30.512Z,100449.13
2022-12-11T10:55:59.157Z,100448.41
2022-12-11T10:58:29.588Z,100445.72
2022-12-11T11:01:07.956Z,100442.88
2022-12-11T11:03:43.581Z,100436.56
2022-12-11T11:06:18.993Z,100434.97
2022-12-11T11:08:50.080Z,100440.63
2022-12-11T11:11:25.566Z,100442.56
2022-12-11T11:14:04.911Z,100439.75
2022-12-11T11:16:36.614Z,100431.59
2022-12-11T11:19:06.541Z,100426.09
2022-12-11T11:21:37.048Z,100436.31
2022-12-11T11:24:06.185Z,100430.31
2022-12-11T11:27:11.150Z,100423.34
2022-12-11T11:29:30.448Z,100421.34
2022-12-11T11:32:02.158Z,100410.88
2022-12-11T11:34:30.961Z,100416.84
2022-12-11T11:37:05.567Z,100409.00
2022-12-11T11:39:37.787Z,100399.28
2022-12-11T11:42:14.658Z,100398.81
2022-12-11T11:44:48.945Z,100410.53
2022-12-11T11:47:24.269Z,100404.44
2022-12-11T11:50:01.361Z,100399.97
2022-12-11T11:52:36.337Z,100394.31
2022-12-11T11:55:10.461Z,100391.06
2022-12-11T11:57:44.643Z,100386.91
2022-12-11T12:00:20.687Z,100390.19
2022-12-11T12:02:51.323Z,100388.97
2022-12-11T12:05:29.548Z,100384.75
2022-12-11T12:08:14.736Z,100387.78
2022-12-11T12:11:02.162Z,100385.22
2022-12-11T12:13:55.352Z,100387.06
2022-12-11T12:19:38.284Z,100374.88
2022-12-11T12:22:21.665Z,100382.75
2022-12-11T12:25:01.506Z,100381.81
2022-12-11T12:27:53.534Z,100380.22
2022-12-11T12:30:24.705Z,100388.91
2022-12-11T12:33:10.208Z,100388.28
2022-12-11T12:35:41.156Z,100381.84
2022-12-11T12:38:18.364Z,100383.88
2022-12-11T12:40:58.569Z,100380.09
2022-12-11T12:43:48.312Z,100374.88
2022-12-11T12:46:26.204Z,100373.53
2022-12-11T12:48:58.323Z,100377.81
2022-12-11T12:51:28.005Z,100376.06
2022-12-11T12:53:59.630Z,100375.09
2022-12-11T12:56:31.358Z,100374.47
2022-12-11T12:58:59.767Z,100366.66
2022-12-11T13:01:29.568Z,100373.72
2022-12-11T13:04:03.089Z,100366.00
2022-12-11T13:06:39.050Z,100365.59
2022-12-11T13:09:17.226Z,100366.50
2022-12-11T13:11:50.167Z,100368.53
2022-12-11T13:14:36.021Z,100363.84
2022-12-11T13:17:25.480Z,100362.13
2022-12-11T13:20:13.983Z,100363.25
2022-12-11T13:22:56.912Z,100367.66
2022-12-11T13:25:29.161Z,100366.06
2022-12-11T13:28:08.419Z,100363.88
2022-12-11T13:30:36.565Z,100362.03
2022-12-11T13:33:07.091Z,100364.63
2022-12-11T13:35:37.369Z,100360.47
2022-12-11T13:38:08.316Z,100366.13
2022-12-11T13:40:40.824Z,100373.44
2022-12-11T13:43:19.013Z,100368.22
2022-12-11T13:45:50.920Z,100358.84
2022-12-11T13:48:27.952Z,100362.38
2022-12-11T13:50:59.188Z,100356.53
2022-12-11T13:53:27.506Z,100357.75
2022-12-11T13:55:59.978Z,100355.13
2022-12-11T13:58:31.042Z,100349.56
2022-12-11T14:01:11.142Z,100352.03
2022-12-11T14:03:41.892Z,100343.56
2022-12-11T14:06:18.303Z,100346.47
2022-12-11T14:08:54.497Z,100347.31
2022-12-11T14:11:24.853Z,100349.47
2022-12-11T14:13:56.128Z,100345.03
2022-12-11T14:16:27.172Z,100349.31
2022-12-11T14:19:00.473Z,100344.81
2022-12-11T14:21:28.624Z,100344.59
2022-12-11T14:23:58.586Z,100346.72
2022-12-11T14:26:28.152Z,100345.84
2022-12-11T14:28:58.104Z,100346.50
2022-12-11T14:31:31.012Z,100345.34
2022-12-11T14:34:04.274Z,100344.22
2022-12-11T14:36:34.462Z,100338.41
2022-12-11T14:39:06.016Z,100338.41
2022-12-11T14:41:44.066Z,100338.19
2022-12-11T14:44:17.728Z,100336.56
2022-12-11T14:46:49.456Z,100331.47
2022-12-11T14:49:24.040Z,100339.09
2022-12-11T14:51:56.026Z,100342.00
2022-12-11T14:54:30.910Z,100340.16
2022-12-11T14:57:02.330Z,100342.88
2022-12-11T14:59:36.212Z,100345.06
2022-12-11T15:02:22.403Z,100345.13
2022-12-11T15:05:06.854Z,100348.53
2022-12-11T15:07:35.267Z,100343.84
2022-12-11T15:10:04.176Z,100347.03
2022-12-11T15:12:32.813Z,100345.19
2022-12-11T15:15:08.082Z,100340.19
2022-12-11T15:17:37.488Z,100346.22
2022-12-11T15:20:10.181Z,100343.34
2022-12-11T15:22:39.970Z,100346.06
2022-12-11T15:25:18.900Z,100355.78
2022-12-11T15:27:50.835Z,100354.03
2022-12-11T15:30:36.269Z,100357.38
2022-12-11T15:33:21.835Z,100353.22
2022-12-11T15:35:56.635Z,100348.88
2022-12-11T15:38:39.514Z,100351.66
2022-12-11T15:41:12.242Z,100349.88
2022-12-11T15:43:40.409Z,100348.38
2022-12-11T15:46:09.884Z,100349.13
2022-12-11T15:48:37.987Z,100352.34
2022-12-11T15:51:06.807Z,100337.81
2022-12-11T15:53:34.882Z,100334.44
2022-12-11T15:56:03.088Z,100346.34
2022-12-11T15:58:31.417Z,100347.31
2022-12-11T16:00:59.635Z,100348.59
2022-12-11T16:03:34.375Z,100355.97
2022-12-11T16:06:02.112Z,100352.31
2022-12-11T16:08:32.407Z,100356.28
2022-12-11T16:11:00.460Z,100356.00
2022-12-11T16:13:28.424Z,100354.59
2022-12-11T16:15:59.037Z,100356.81
2022-12-11T16:18:27.071Z,100353.44
2022-12-11T16:20:56.554Z,100356.06
2022-12-11T16:23:24.760Z,100351.72
2022-12-11T16:25:52.997Z,100355.97
2022-12-11T16:28:21.763Z,100351.81
2022-12-11T16:30:50.297Z,100352.94
2022-12-11T16:33:19.987Z,100353.81
2022-12-11T16:35:48.054Z,100352.38
2022-12-11T16:38:17.908Z,100358.34
2022-12-11T16:40:46.017Z,100345.19
2022-12-11T16:43:14.085Z,100352.19
2022-12-11T16:45:43.920Z,100349.88
2022-12-11T16:48:11.998Z,100346.56
2022-12-11T16:50:41.468Z,100348.38
2022-12-11T16:53:09.595Z,100351.94
2022-12-11T16:55:40.695Z,100342.91
2022-12-11T16:58:09.480Z,100345.47
2022-12-11T17:00:37.553Z,100343.06
2022-12-11T17:03:06.836Z,100341.94
2022-12-11T17:05:35.154Z,100333.66
2022-12-11T17:08:03.663Z,100344.66
2022-12-11T17:10:31.840Z,100338.97
2022-12-11T17:13:01.336Z,100331.06
2022-12-11T17:15:29.539Z,100338.22
2022-12-11T17:17:57.642Z,100334.06
2022-12-11T17:20:25.866Z,100340.88
2022-12-11T17:22:53.905Z,100339.13
2022-12-11T17:25:24.931Z,100340.06
2022-12-11T17:28:05.520Z,100339.31
2022-12-11T17:30:33.478Z,100336.53
2022-12-11T17:33:02.978Z,100339.56
2022-12-11T17:35:32.863Z,100333.06
2022-12-11T17:38:01.309Z,100331.75
2022-12-11T17:40:30.763Z,100332.47
2022-12-11T17:42:58.984Z,100328.63
2022-12-11T17:45:28.601Z,100327.50
2022-12-11T17:47:57.896Z,100334.63
2022-12-11T17:50:26.032Z,100325.09
2022-12-11T17:52:55.407Z,100334.56
2022-12-11T17:55:36.590Z,100336.41
2022-12-11T17:58:05.472Z,100337.59
2022-12-11T18:00:35.043Z,100333.81
2022-12-11T18:03:03.246Z,100331.22
2022-12-11T18:05:31.271Z,100332.94
2022-12-11T18:08:04.235Z,100327.00
2022-12-11T18:10:43.955Z,100336.41
2022-12-11T18:13:13.937Z,100336.53
2022-12-11T18:15:44.231Z,100329.75
2022-12-11T18:18:12.447Z,100334.75
2022-12-11T18:20:40.870Z,100333.03
2022-12-11T18:23:08.967Z,100330.50
2022-12-11T18:25:40.974Z,100321.84
2022-12-11T18:28:09.107Z,100331.50
2022-12-11T18:30:38.869Z,100341.91
2022-12-11T18:33:08.187Z,100336.59
2022-12-11T18:35:36.553Z,100339.69
2022-12-11T18:38:04.713Z,100327.16
2022-12-11T18:40:34.360Z,100339.44
2022-12-11T18:43:02.328Z,100334.75
2022-12-11T18:45:31.356Z,100333.81
2022-12-11T18:47:59.428Z,100332.91
2022-12-11T18:50:30.701Z,100331.84
2022-12-11T18:53:00.738Z,100333.94
2022-12-11T18:55:28.829Z,100330.53
2022-12-11T18:57:56.825Z,100323.06
2022-12-11T19:00:25.120Z,100326.53
2022-12-11T19:02:55.426Z,100329.84
2022-12-11T19:05:23.499Z,100331.47
2022-12-11T19:07:54.627Z,100319.63
2022-12-11T19:10:24.810Z,100325.72
2022-12-11T19:12:55.103Z,100327.56
2022-12-11T19:15:24.120Z,100325.59
2022-12-11T19:17:52.634Z,100330.75
2022-12-11T19:23:11.456Z,100326.56
2022-12-11T19:25:43.753Z,100335.09
2022-12-11T19:28:12.120Z,100340.13
2022-12-11T19:30:43.626Z,100336.66
2022-12-11T19:33:14.167Z,100337.63
2022-12-11T19:35:42.522Z,100336.53
2022-12-11T19:38:13.764Z,100339.28
2022-12-11T19:40:42.908Z,100331.03
2022-12-11T19:43:10.990Z,100338.44
2022-12-11T19:45:39.492Z,100340.88
2022-12-11T19:48:07.663Z,100341.66
2022-12-11T19:50:36.528Z,100338.34
2022-12-11T19:53:05.105Z,100333.69
2022-12-11T19:55:34.592Z,100347.59
2022-12-11T19:58:02.658Z,100339.84
2022-12-11T20:00:30.797Z,100343.06
2022-12-11T20:02:58.938Z,100346.03
2022-12-11T20:05:27.012Z,100340.38
2022-12-11T20:07:55.124Z,100355.31
2022-12-11T20:10:23.212Z,100349.22
2022-12-11T20:12:56.503Z,100344.34
2022-12-11T20:15:25.169Z,100339.50
2022-12-11T20:17:53.933Z,100347.47
2022-12-11T20:20:25.960Z,100332.94
2022-12-11T20:22:54.414Z,100330.00
2022-12-11T20:25:22.584Z,100333.44
2022-12-11T20:27:58.567Z,100329.50
2022-12-11T20:30:26.768Z,100328.97
2022-12-11T20:32:54.840Z,100330.94
2022-12-11T20:35:22.842Z,100337.88
2022-12-11T20:37:50.885Z,100337.88
2022-12-11T20:40:19.910Z,100338.09
2022-12-11T20:42:47.986Z,100341.47
2022-12-11T20:45:18.270Z,100331.91
2022-12-11T20:47:46.554Z,100333.38
2022-12-11T20:50:14.832Z,100332.72
2022-12-11T20:52:43.150Z,100339.59
2022-12-11T20:55:12.449Z,100332.94
2022-12-11T20:57:45.035Z,100341.34
2022-12-11T21:00:14.717Z,100337.75
2022-12-11T21:02:45.261Z,100330.81
2022-12-11T21:05:14.412Z,100335.28
2022-12-11T21:07:46.764Z,100338.97
2022-12-11T21:10:16.595Z,100338.97
2022-12-11T21:12:45.629Z,100335.63
2022-12-11T21:15:17.342Z,100341.66
2022-12-11T21:17:47.972Z,100338.16
2022-12-11T21:20:17.146Z,100335.97
2022-12-11T21:22:54.100Z,100332.09
2022-12-11T21:25:25.815Z,100334.88
2022-12-11T21:27:54.619Z,100319.53
2022-12-11T21:30:23.056Z,100328.66
2022-12-11T21:32:53.206Z,100332.16
2022-12-11T21:35:21.664Z,100329.66
2022-12-11T21:38:13.421Z,100328.34
2022-12-11T21:40:42.227Z,100327.56
2022-12-11T21:43:10.516Z,100324.56
2022-12-11T21:46:00.483Z,100321.84
2022-12-11T21:48:27.977Z,100322.59
2022-12-11T21:50:56.113Z,100318.44
2022-12-11T21:53:24.072Z,100317.69
2022-12-11T21:55:53.641Z,100313.38
2022-12-11T21:58:21.729Z,100314.13
2022-12-11T22:00:49.964Z,100310.59
2022-12-11T22:03:18.347Z,100307.66
2022-12-11T22:05:47.806Z,100311.25
2022-12-11T22:08:15.911Z,100313.63
2022-12-11T22:10:45.799Z,100308.50
2022-12-11T22:13:13.946Z,100294.81
2022-12-11T22:15:42.415Z,100298.38
2022-12-11T22:18:10.580Z,100299.22
2022-12-11T22:20:38.906Z,100300.06
2022-12-11T22:23:09.290Z,100313.63
2022-12-11T22:25:38.114Z,100315.63
2022-12-11T22:28:06.884Z,100317.09
2022-12-11T22:30:34.892Z,100311.34
2022-12-11T22:33:02.915Z,100316.38
2022-12-11T22:35:30.862Z,100313.56
2022-12-11T22:37:58.848Z,100318.19
2022-12-11T22:40:30.117Z,100318.19
2022-12-11T22:42:58.518Z,100329.13
2022-12-11T22:45:26.711Z,100329.94
2022-12-11T22:47:54.716Z,100328.84
2022-12-11T22:50:23.627Z,100330.13
2022-12-11T22:52:51.693Z,100334.22
2022-12-11T22:55:19.815Z,100336.56
2022-12-11T22:57:49.208Z,100335.69
2022-12-11T23:00:17.934Z,100334.22
2022-12-11T23:02:46.300Z,100339.38
2022-12-11T23:05:14.775Z,100337.47
2022-12-11T23:07:44.016Z,100338.66
2022-12-11T23:10:12.277Z,100336.72
2022-12-11T23:12:40.376Z,100339.44
2022-12-11T23:15:11.382Z,100343.16
2022-12-11T23:17:39.575Z,100341.47
2022-12-11T23:20:08.727Z,100339.31
2022-12-11T23:22:36.741Z,100335.47
2022-12-11T23:25:05.489Z,100338.63
2022-12-11T23:27:33.491Z,100323.13
2022-12-11T23:30:01.535Z,100320.69
2022-12-11T23:32:30.965Z,100321.44
2022-12-11T23:34:59.053Z,100319.81
2022-12-11T23:37:27.938Z,100313.97
2022-12-11T23:39:55.925Z,100314.44
2022-12-11T23:42:24.198Z,100309.69
2022-12-11T23:44:52.175Z,100315.63
2022-12-11T23:47:20.167Z,100311.31
2022-12-11T23:49:49.590Z,100312.13
2022-12-11T23:52:17.583Z,100293.94
2022-12-11T23:54:46.402Z,100294.06
2022-12-11T23:57:15.659Z,100285.72
2022-12-11T23:59:43.611Z,100277.09
